Atwood, Colorado
Current Conditions -  °F | °C
As of 10:30 PM on Wednesday 26 Nov 2014 (Local Time) from KSTK Reporting Station
Clear Clear  
Wind Chill: -7°   Ceiling: Unl
Heat Index: -7°   Visibility: 10mi
Dew Point: -8°   Wind: 3mph
Humidity: 93%   Direction: 280°W
Pressure: 30.28"   Gusts: NA
Location:  40.55°N, 103.27°W
Report Text: KSTK 270530Z AUTO 28003KT 10SM CLR M07/M08 A3028 RMK AO2
Loading
Personal Weather Stations






























Interactive Weather Map New forecast layout! Learn more

10-Day Weather Forecast

Advertisements
Track Severe Weather on mobile